sensor_id;sensor_type;location;lat;lon;timestamp;pressure;altitude;pressure_sealevel;temperature;humidity
32735;BME280;19112;51.076;3.706;2022-09-12T00:00:04;101619.44;;;17.47;81.91
32735;BME280;19112;51.076;3.706;2022-09-12T00:02:30;101345.50;;;16.06;81.90
32735;BME280;19112;51.076;3.706;2022-09-12T00:04:56;101517.78;;;17.01;82.03
32735;BME280;19112;51.076;3.706;2022-09-12T00:07:22;101583.06;;;17.41;82.03
32735;BME280;19112;51.076;3.706;2022-09-12T00:09:48;101062.75;;;14.46;81.65
32735;BME280;19112;51.076;3.706;2022-09-12T00:12:14;101318.72;;;15.90;81.80
32735;BME280;19112;51.076;3.706;2022-09-12T00:14:39;101379.38;;;16.23;82.03
32735;BME280;19112;51.076;3.706;2022-09-12T00:17:05;101354.44;;;16.12;82.22
32735;BME280;19112;51.076;3.706;2022-09-12T00:19:31;101221.47;;;15.36;81.94
32735;BME280;19112;51.076;3.706;2022-09-12T00:21:56;101558.06;;;17.28;82.19
32735;BME280;19112;51.076;3.706;2022-09-12T00:24:22;101299.16;;;15.82;82.18
32735;BME280;19112;51.076;3.706;2022-09-12T00:26:48;101294.69;;;15.81;81.85
32735;BME280;19112;51.076;3.706;2022-09-12T00:29:20;101550.13;;;17.30;81.79
32735;BME280;19112;51.076;3.706;2022-09-12T00:31:46;100994.19;;;14.09;81.64
32735;BME280;19112;51.076;3.706;2022-09-12T00:34:12;101374.06;;;16.23;82.00
32735;BME280;19112;51.076;3.706;2022-09-12T00:36:39;101458.09;;;16.76;81.86
32735;BME280;19112;51.076;3.706;2022-09-12T00:39:06;101417.78;;;16.47;81.81
32735;BME280;19112;51.076;3.706;2022-09-12T00:41:38;101199.19;;;15.24;81.40
32735;BME280;19112;51.076;3.706;2022-09-12T00:57:57;101520.44;;;16.99;82.15
32735;BME280;19112;51.076;3.706;2022-09-12T01:00:26;101498.94;;;16.86;81.95
32735;BME280;19112;51.076;3.706;2022-09-12T01:03:05;101365.03;;;16.12;82.36
32735;BME280;19112;51.076;3.706;2022-09-12T01:05:36;101241.84;;;15.42;82.34
32735;BME280;19112;51.076;3.706;2022-09-12T01:08:05;101048.31;;;14.28;82.43
32735;BME280;19112;51.076;3.706;2022-09-12T01:10:34;101536.44;;;17.06;82.65
32735;BME280;19112;51.076;3.706;2022-09-12T01:13:02;101285.50;;;15.62;82.76
32735;BME280;19112;51.076;3.706;2022-09-12T01:15:29;101551.41;;;17.02;83.46
32735;BME280;19112;51.076;3.706;2022-09-12T01:18:24;101528.41;;;17.01;83.99
32735;BME280;19112;51.076;3.706;2022-09-12T01:21:24;101476.78;;;16.82;83.96
32735;BME280;19112;51.076;3.706;2022-09-12T01:27:46;101317.81;;;15.90;84.09
32735;BME280;19112;51.076;3.706;2022-09-12T01:39:40;101520.56;;;17.07;83.91
32735;BME280;19112;51.076;3.706;2022-09-12T01:45:00;101497.53;;;17.05;83.92
32735;BME280;19112;51.076;3.706;2022-09-12T01:47:53;101494.81;;;17.03;84.30
32735;BME280;19112;51.076;3.706;2022-09-12T01:50:26;101449.25;;;16.75;84.65
32735;BME280;19112;51.076;3.706;2022-09-12T01:53:21;101456.41;;;16.78;84.88
32735;BME280;19112;51.076;3.706;2022-09-12T01:56:07;101319.72;;;15.97;84.77
32735;BME280;19112;51.076;3.706;2022-09-12T01:58:44;101479.63;;;16.93;85.20
32735;BME280;19112;51.076;3.706;2022-09-12T02:04:15;101448.47;;;16.81;84.91
32735;BME280;19112;51.076;3.706;2022-09-12T02:07:12;101270.09;;;15.87;84.31
32735;BME280;19112;51.076;3.706;2022-09-12T02:09:56;101202.34;;;15.51;83.74
32735;BME280;19112;51.076;3.706;2022-09-12T02:12:28;101328.03;;;16.17;83.15
32735;BME280;19112;51.076;3.706;2022-09-12T02:15:03;101496.59;;;17.02;83.23
32735;BME280;19112;51.076;3.706;2022-09-12T02:17:37;101484.97;;;16.94;83.59
32735;BME280;19112;51.076;3.706;2022-09-12T02:20:20;101295.75;;;15.91;83.79
32735;BME280;19112;51.076;3.706;2022-09-12T02:22:49;101356.34;;;16.19;84.29
32735;BME280;19112;51.076;3.706;2022-09-12T02:25:18;101107.47;;;14.79;84.12
32735;BME280;19112;51.076;3.706;2022-09-12T02:28:07;101426.06;;;16.65;84.21
32735;BME280;19112;51.076;3.706;2022-09-12T02:30:42;101284.97;;;15.80;84.36
32735;BME280;19112;51.076;3.706;2022-09-12T02:33:45;101455.53;;;16.81;84.81
32735;BME280;19112;51.076;3.706;2022-09-12T02:38:48;101392.09;;;16.43;84.66
32735;BME280;19112;51.076;3.706;2022-09-12T02:41:18;101482.03;;;16.79;84.67
32735;BME280;19112;51.076;3.706;2022-09-12T02:43:45;101381.38;;;16.37;84.23
32735;BME280;19112;51.076;3.706;2022-09-12T02:46:24;101203.03;;;15.41;83.73
32735;BME280;19112;51.076;3.706;2022-09-12T02:48:52;100957.91;;;13.99;83.02
32735;BME280;19112;51.076;3.706;2022-09-12T02:51:20;101443.06;;;16.75;82.84
32735;BME280;19112;51.076;3.706;2022-09-12T02:53:46;101202.06;;;15.36;82.57
32735;BME280;19112;51.076;3.706;2022-09-12T02:56:20;101448.25;;;16.70;83.14
32735;BME280;19112;51.076;3.706;2022-09-12T02:58:48;101204.50;;;15.25;83.10
32735;BME280;19112;51.076;3.706;2022-09-12T03:01:55;101416.94;;;16.48;83.66
32735;BME280;19112;51.076;3.706;2022-09-12T03:05:14;101448.13;;;16.63;83.93
32735;BME280;19112;51.076;3.706;2022-09-12T03:08:06;101447.97;;;16.55;84.24
32735;BME280;19112;51.076;3.706;2022-09-12T03:13:23;101300.66;;;15.69;83.26
32735;BME280;19112;51.076;3.706;2022-09-12T03:16:32;101421.25;;;16.43;83.13
32735;BME280;19112;51.076;3.706;2022-09-12T03:19:32;101456.78;;;16.54;82.84
32735;BME280;19112;51.076;3.706;2022-09-12T03:25:15;101451.41;;;16.49;83.13
32735;BME280;19112;51.076;3.706;2022-09-12T03:28:05;101261.03;;;15.30;82.85
32735;BME280;19112;51.076;3.706;2022-09-12T03:30:58;101393.25;;;16.10;83.08
32735;BME280;19112;51.076;3.706;2022-09-12T03:33:25;101384.31;;;16.04;83.17
32735;BME280;19112;51.076;3.706;2022-09-12T03:35:52;101422.59;;;16.19;83.38
32735;BME280;19112;51.076;3.706;2022-09-12T03:38:18;101428.69;;;16.15;83.36
32735;BME280;19112;51.076;3.706;2022-09-12T03:40:44;101357.41;;;15.82;83.04
32735;BME280;19112;51.076;3.706;2022-09-12T03:43:11;101410.94;;;16.13;82.78
32735;BME280;19112;51.076;3.706;2022-09-12T03:45:37;101467.88;;;16.33;82.63
32735;BME280;19112;51.076;3.706;2022-09-12T03:48:04;101453.66;;;16.30;82.86
32735;BME280;19112;51.076;3.706;2022-09-12T03:50:30;101184.91;;;14.73;82.85
32735;BME280;19112;51.076;3.706;2022-09-12T03:52:59;101455.38;;;16.24;83.03
32735;BME280;19112;51.076;3.706;2022-09-12T03:55:25;101145.63;;;14.49;83.14
32735;BME280;19112;51.076;3.706;2022-09-12T03:57:54;101416.91;;;16.01;83.48
32735;BME280;19112;51.076;3.706;2022-09-12T04:00:20;101368.56;;;15.67;83.59
32735;BME280;19112;51.076;3.706;2022-09-12T04:02:46;101164.97;;;14.48;83.56
32735;BME280;19112;51.076;3.706;2022-09-12T04:05:12;101470.09;;;16.10;83.50
32735;BME280;19112;51.076;3.706;2022-09-12T04:07:38;101384.66;;;15.77;83.19
32735;BME280;19112;51.076;3.706;2022-09-12T04:10:04;101385.44;;;15.73;83.38
32735;BME280;19112;51.076;3.706;2022-09-12T04:12:30;101214.06;;;14.76;83.46
32735;BME280;19112;51.076;3.706;2022-09-12T04:14:56;101264.84;;;15.02;83.40
32735;BME280;19112;51.076;3.706;2022-09-12T04:17:22;101424.50;;;15.84;83.31
32735;BME280;19112;51.076;3.706;2022-09-12T04:19:48;101377.31;;;15.65;83.28
32735;BME280;19112;51.076;3.706;2022-09-12T04:22:13;101130.09;;;14.27;83.20
32735;BME280;19112;51.076;3.706;2022-09-12T04:24:39;101326.31;;;15.33;83.59
32735;BME280;19112;51.076;3.706;2022-09-12T04:27:05;101262.13;;;14.99;84.13
32735;BME280;19112;51.076;3.706;2022-09-12T04:29:30;100923.25;;;13.07;84.25
32735;BME280;19112;51.076;3.706;2022-09-12T04:31:56;101414.84;;;15.86;84.92
32735;BME280;19112;51.076;3.706;2022-09-12T04:34:22;101431.84;;;15.97;85.00
32735;BME280;19112;51.076;3.706;2022-09-12T04:36:48;100716.84;;;11.95;84.27
32735;BME280;19112;51.076;3.706;2022-09-12T04:39:13;101297.06;;;15.24;84.10
32735;BME280;19112;51.076;3.706;2022-09-12T04:41:39;101338.13;;;15.49;83.86
32735;BME280;19112;51.076;3.706;2022-09-12T04:44:10;101355.97;;;15.57;83.82
32735;BME280;19112;51.076;3.706;2022-09-12T04:46:40;101206.03;;;14.73;83.62
32735;BME280;19112;51.076;3.706;2022-09-12T04:49:07;101274.69;;;15.08;83.60
32735;BME280;19112;51.076;3.706;2022-09-12T04:51:35;101342.19;;;15.33;83.90
32735;BME280;19112;51.076;3.706;2022-09-12T04:54:12;101413.06;;;15.87;84.52
32735;BME280;19112;51.076;3.706;2022-09-12T04:56:39;101366.56;;;15.57;84.43
32735;BME280;19112;51.076;3.706;2022-09-12T04:59:06;101432.75;;;15.98;84.44
32735;BME280;19112;51.076;3.706;2022-09-12T05:01:34;101396.06;;;15.74;84.31
32735;BME280;19112;51.076;3.706;2022-09-12T05:04:00;101447.78;;;15.99;84.25
32735;BME280;19112;51.076;3.706;2022-09-12T05:06:36;101281.00;;;15.16;84.29
32735;BME280;19112;51.076;3.706;2022-09-12T05:09:05;101213.25;;;14.80;84.61
32735;BME280;19112;51.076;3.706;2022-09-12T05:11:34;101294.34;;;15.22;84.77
32735;BME280;19112;51.076;3.706;2022-09-12T05:14:01;101294.34;;;15.20;84.72
32735;BME280;19112;51.076;3.706;2022-09-12T05:16:27;101364.16;;;15.66;84.65
32735;BME280;19112;51.076;3.706;2022-09-12T05:18:55;101419.44;;;15.95;85.15
32735;BME280;19112;51.076;3.706;2022-09-12T05:21:24;101228.22;;;14.80;85.35
32735;BME280;19112;51.076;3.706;2022-09-12T05:23:56;101373.00;;;15.70;85.54
32735;BME280;19112;51.076;3.706;2022-09-12T05:26:23;101340.00;;;15.54;85.23
32735;BME280;19112;51.076;3.706;2022-09-12T05:28:50;101242.84;;;15.05;84.72
32735;BME280;19112;51.076;3.706;2022-09-12T05:31:25;101202.63;;;14.79;85.01
32735;BME280;19112;51.076;3.706;2022-09-12T05:33:53;101306.22;;;15.41;84.79
32735;BME280;19112;51.076;3.706;2022-09-12T05:36:27;101335.84;;;15.65;84.68
32735;BME280;19112;51.076;3.706;2022-09-12T05:38:58;101239.44;;;15.10;84.94
32735;BME280;19112;51.076;3.706;2022-09-12T05:41:27;101147.47;;;14.53;85.17
32735;BME280;19112;51.076;3.706;2022-09-12T05:44:01;101232.44;;;15.12;85.03
32735;BME280;19112;51.076;3.706;2022-09-12T05:46:31;101028.19;;;13.94;85.05
32735;BME280;19112;51.076;3.706;2022-09-12T05:49:05;101166.53;;;14.79;85.05
32735;BME280;19112;51.076;3.706;2022-09-12T05:51:34;101420.66;;;16.12;85.54
32735;BME280;19112;51.076;3.706;2022-09-12T05:54:02;101038.72;;;13.94;85.15
32735;BME280;19112;51.076;3.706;2022-09-12T05:56:32;101369.19;;;15.98;85.35
32735;BME280;19112;51.076;3.706;2022-09-12T05:59:02;101312.09;;;15.67;85.41
32735;BME280;19112;51.076;3.706;2022-09-12T06:01:30;101426.25;;;16.28;85.31
32735;BME280;19112;51.076;3.706;2022-09-12T06:04:00;101131.84;;;14.64;85.02
32735;BME280;19112;51.076;3.706;2022-09-12T06:06:27;101435.22;;;16.34;85.32
32735;BME280;19112;51.076;3.706;2022-09-12T06:09:00;101385.41;;;16.15;85.14
32735;BME280;19112;51.076;3.706;2022-09-12T06:11:29;101205.25;;;15.18;84.98
32735;BME280;19112;51.076;3.706;2022-09-12T06:13:57;100963.69;;;13.81;84.86
32735;BME280;19112;51.076;3.706;2022-09-12T06:16:33;101356.16;;;16.10;84.83
32735;BME280;19112;51.076;3.706;2022-09-12T06:19:15;101436.56;;;16.59;85.00
32735;BME280;19112;51.076;3.706;2022-09-12T06:21:41;101118.06;;;14.79;84.61
32735;BME280;19112;51.076;3.706;2022-09-12T06:24:07;101284.06;;;15.78;84.75
32735;BME280;19112;51.076;3.706;2022-09-12T06:26:33;101357.38;;;16.29;84.56
32735;BME280;19112;51.076;3.706;2022-09-12T06:28:59;101410.97;;;16.61;84.77
32735;BME280;19112;51.076;3.706;2022-09-12T06:31:32;101439.69;;;16.84;84.21
32735;BME280;19112;51.076;3.706;2022-09-12T06:34:05;101440.06;;;17.05;84.01
32735;BME280;19112;51.076;3.706;2022-09-12T06:36:38;101455.16;;;17.11;83.83
32735;BME280;19112;51.076;3.706;2022-09-12T06:39:13;101324.38;;;16.62;83.44
32735;BME280;19112;51.076;3.706;2022-09-12T06:41:41;101294.91;;;16.43;83.45
32735;BME280;19112;51.076;3.706;2022-09-12T06:44:12;101425.38;;;17.28;82.82
32735;BME280;19112;51.076;3.706;2022-09-12T06:46:39;101184.53;;;15.89;82.22
32735;BME280;19112;51.076;3.706;2022-09-12T06:49:04;101342.00;;;16.58;82.34
32735;BME280;19112;51.076;3.706;2022-09-12T06:51:31;100889.84;;;14.28;81.87
32735;BME280;19112;51.076;3.706;2022-09-12T06:53:56;100999.31;;;14.91;81.61
32735;BME280;19112;51.076;3.706;2022-09-12T06:56:25;101399.63;;;17.21;81.74
32735;BME280;19112;51.076;3.706;2022-09-12T06:58:54;101257.81;;;16.43;81.82
32735;BME280;19112;51.076;3.706;2022-09-12T07:01:23;101056.63;;;15.40;81.15
32735;BME280;19112;51.076;3.706;2022-09-12T07:03:55;100963.28;;;14.96;80.38
32735;BME280;19112;51.076;3.706;2022-09-12T07:06:24;101213.63;;;16.41;80.17
32735;BME280;19112;51.076;3.706;2022-09-12T07:08:59;101152.19;;;16.09;79.94
32735;BME280;19112;51.076;3.706;2022-09-12T07:11:28;101344.88;;;17.29;79.92
32735;BME280;19112;51.076;3.706;2022-09-12T07:13:58;100990.34;;;15.33;79.48
32735;BME280;19112;51.076;3.706;2022-09-12T07:16:24;101427.09;;;17.89;79.46
32735;BME280;19112;51.076;3.706;2022-09-12T07:19:01;101436.00;;;17.91;79.04
32735;BME280;19112;51.076;3.706;2022-09-12T07:21:28;101189.00;;;16.51;78.71
32735;BME280;19112;51.076;3.706;2022-09-12T07:23:54;101121.47;;;16.23;78.50
32735;BME280;19112;51.076;3.706;2022-09-12T07:26:23;101441.47;;;18.04;78.62
32735;BME280;19112;51.076;3.706;2022-09-12T07:28:53;101259.00;;;17.24;78.30
32735;BME280;19112;51.076;3.706;2022-09-12T07:31:23;101398.06;;;18.05;77.58
32735;BME280;19112;51.076;3.706;2022-09-12T07:33:50;101432.06;;;18.32;77.62
32735;BME280;19112;51.076;3.706;2022-09-12T07:36:22;101113.06;;;16.55;76.84
32735;BME280;19112;51.076;3.706;2022-09-12T07:38:56;101201.41;;;17.17;76.67
32735;BME280;19112;51.076;3.706;2022-09-12T07:41:28;101432.25;;;18.52;76.49
32735;BME280;19112;51.076;3.706;2022-09-12T07:43:57;101262.91;;;17.55;75.95
32735;BME280;19112;51.076;3.706;2022-09-12T07:46:24;101353.06;;;18.19;76.29
32735;BME280;19112;51.076;3.706;2022-09-12T07:48:51;101306.75;;;17.96;76.12
32735;BME280;19112;51.076;3.706;2022-09-12T07:51:18;101208.78;;;17.43;76.09
32735;BME280;19112;51.076;3.706;2022-09-12T07:53:44;101279.22;;;17.86;75.63
32735;BME280;19112;51.076;3.706;2022-09-12T07:56:12;101258.75;;;17.77;75.45
32735;BME280;19112;51.076;3.706;2022-09-12T07:58:39;101321.09;;;18.13;75.31
32735;BME280;19112;51.076;3.706;2022-09-12T08:01:20;101219.66;;;17.67;74.86
32735;BME280;19112;51.076;3.706;2022-09-12T08:03:56;101424.72;;;18.98;75.02
32735;BME280;19112;51.076;3.706;2022-09-12T08:06:24;101159.28;;;17.48;74.86
32735;BME280;19112;51.076;3.706;2022-09-12T08:08:55;101413.28;;;19.08;74.82
32735;BME280;19112;51.076;3.706;2022-09-12T08:11:23;101176.41;;;17.74;73.85
32735;BME280;19112;51.076;3.706;2022-09-12T08:13:49;101294.81;;;18.45;73.71
32735;BME280;19112;51.076;3.706;2022-09-12T08:16:19;101442.72;;;19.30;73.12
32735;BME280;19112;51.076;3.706;2022-09-12T08:18:47;101425.88;;;19.35;73.20
32735;BME280;19112;51.076;3.706;2022-09-12T08:21:25;101311.03;;;18.77;72.99
32735;BME280;19112;51.076;3.706;2022-09-12T08:24:01;101364.53;;;19.20;72.66
32735;BME280;19112;51.076;3.706;2022-09-12T08:26:28;101291.56;;;18.84;72.61
32735;BME280;19112;51.076;3.706;2022-09-12T08:28:54;101221.25;;;18.44;71.75
32735;BME280;19112;51.076;3.706;2022-09-12T08:31:23;101401.13;;;19.53;71.74
32735;BME280;19112;51.076;3.706;2022-09-12T08:33:50;101442.09;;;19.74;71.58
32735;BME280;19112;51.076;3.706;2022-09-12T08:36:22;101288.91;;;18.84;71.29
32735;BME280;19112;51.076;3.706;2022-09-12T08:38:54;101305.06;;;19.15;70.82
32735;BME280;19112;51.076;3.706;2022-09-12T08:44:08;101435.13;;;20.02;69.95
32735;BME280;19112;51.076;3.706;2022-09-12T08:47:09;101430.69;;;20.05;69.39
32735;BME280;19112;51.076;3.706;2022-09-12T08:52:58;101422.75;;;20.21;67.67
32735;BME280;19112;51.076;3.706;2022-09-12T08:55:34;101428.09;;;20.28;68.05
32735;BME280;19112;51.076;3.706;2022-09-12T09:06:34;101418.41;;;20.55;67.79
32735;BME280;19112;51.076;3.706;2022-09-12T09:09:20;101413.97;;;20.52;67.57
32735;BME280;19112;51.076;3.706;2022-09-12T09:12:05;101416.66;;;20.63;67.11
32735;BME280;19112;51.076;3.706;2022-09-12T09:17:56;101395.31;;;20.93;65.52
32735;BME280;19112;51.076;3.706;2022-09-12T09:23:26;101342.81;;;20.83;65.48
32735;BME280;19112;51.076;3.706;2022-09-12T09:26:22;101303.69;;;20.67;65.21
32735;BME280;19112;51.076;3.706;2022-09-12T09:31:50;101383.66;;;21.28;64.80
32735;BME280;19112;51.076;3.706;2022-09-12T09:34:28;101389.91;;;21.27;64.97
32735;BME280;19112;51.076;3.706;2022-09-12T09:37:20;101371.19;;;21.41;65.05
32735;BME280;19112;51.076;3.706;2022-09-12T09:40:20;101382.75;;;21.51;64.34
32735;BME280;19112;51.076;3.706;2022-09-12T09:45:25;101314.25;;;21.16;63.97
32735;BME280;19112;51.076;3.706;2022-09-12T09:48:07;101357.84;;;21.47;63.77
32735;BME280;19112;51.076;3.706;2022-09-12T09:50:38;101337.28;;;21.61;63.19
32735;BME280;19112;51.076;3.706;2022-09-12T09:53:04;101273.25;;;21.41;62.86
32735;BME280;19112;51.076;3.706;2022-09-12T09:55:41;101323.78;;;21.86;62.63
32735;BME280;19112;51.076;3.706;2022-09-12T09:58:08;101266.91;;;21.64;61.97
32735;BME280;19112;51.076;3.706;2022-09-12T10:00:36;101361.06;;;22.15;61.36
32735;BME280;19112;51.076;3.706;2022-09-12T10:03:23;101349.41;;;22.28;61.75
32735;BME280;19112;51.076;3.706;2022-09-12T10:05:52;101207.31;;;21.45;61.41
32735;BME280;19112;51.076;3.706;2022-09-12T10:08:25;101284.47;;;22.02;60.25
32735;BME280;19112;51.076;3.706;2022-09-12T10:10:56;101135.25;;;21.34;61.01
32735;BME280;19112;51.076;3.706;2022-09-12T10:16:26;101129.78;;;21.51;59.69
32735;BME280;19112;51.076;3.706;2022-09-12T10:18:58;101107.41;;;21.66;58.44
32735;BME280;19112;51.076;3.706;2022-09-12T10:21:38;101243.84;;;22.63;58.90
32735;BME280;19112;51.076;3.706;2022-09-12T10:24:24;101222.53;;;22.55;59.21
32735;BME280;19112;51.076;3.706;2022-09-12T10:30:17;101256.03;;;22.94;58.14
32735;BME280;19112;51.076;3.706;2022-09-12T10:32:50;101342.94;;;23.47;57.79
32735;BME280;19112;51.076;3.706;2022-09-12T10:35:29;101242.56;;;23.00;57.24
32735;BME280;19112;51.076;3.706;2022-09-12T10:38:02;101104.97;;;22.37;56.77
32735;BME280;19112;51.076;3.706;2022-09-12T10:40:35;101340.72;;;23.83;56.47
32735;BME280;19112;51.076;3.706;2022-09-12T10:43:37;101321.97;;;23.83;56.73
32735;BME280;19112;51.076;3.706;2022-09-12T10:48:44;101307.78;;;23.73;56.12
32735;BME280;19112;51.076;3.706;2022-09-12T10:51:27;101178.22;;;23.07;56.42
32735;BME280;19112;51.076;3.706;2022-09-12T10:54:04;101256.91;;;23.70;55.19
32735;BME280;19112;51.076;3.706;2022-09-12T10:57:20;101317.94;;;24.12;55.00
32735;BME280;19112;51.076;3.706;2022-09-12T11:00:23;101285.06;;;23.99;55.43
32735;BME280;19112;51.076;3.706;2022-09-12T11:03:29;101204.16;;;23.69;55.30
32735;BME280;19112;51.076;3.706;2022-09-12T11:06:02;101177.41;;;23.65;53.91
32735;BME280;19112;51.076;3.706;2022-09-12T11:08:54;101326.19;;;24.58;53.85
32735;BME280;19112;51.076;3.706;2022-09-12T11:23:25;101175.56;;;24.22;52.29
32735;BME280;19112;51.076;3.706;2022-09-12T11:26:17;101313.72;;;25.03;51.97
32735;BME280;19112;51.076;3.706;2022-09-12T11:29:18;101308.50;;;24.96;51.52
32735;BME280;19112;51.076;3.706;2022-09-12T11:35:17;101190.44;;;24.42;51.94
32735;BME280;19112;51.076;3.706;2022-09-12T11:43:44;101185.69;;;24.58;50.65
32735;BME280;19112;51.076;3.706;2022-09-12T11:46:26;101211.63;;;24.59;51.03
32735;BME280;19112;51.076;3.706;2022-09-12T11:51:55;101280.09;;;25.29;51.21
32735;BME280;19112;51.076;3.706;2022-09-12T11:54:36;101208.06;;;25.01;50.07
32735;BME280;19112;51.076;3.706;2022-09-12T11:57:29;101065.47;;;24.25;50.54
32735;BME280;19112;51.076;3.706;2022-09-12T12:05:41;101108.75;;;24.55;50.40
32735;BME280;19112;51.076;3.706;2022-09-12T12:08:10;101272.00;;;25.71;49.58
32735;BME280;19112;51.076;3.706;2022-09-12T12:15:52;101134.66;;;25.01;48.24
32735;BME280;19112;51.076;3.706;2022-09-12T12:18:26;101269.75;;;25.93;47.98
32735;BME280;19112;51.076;3.706;2022-09-12T12:20:54;101137.78;;;25.23;47.71
32735;BME280;19112;51.076;3.706;2022-09-12T12:23:33;101276.38;;;26.15;48.02
32735;BME280;19112;51.076;3.706;2022-09-12T12:26:03;101274.66;;;26.12;47.11
32735;BME280;19112;51.076;3.706;2022-09-12T12:28:59;101196.63;;;25.74;47.08
32735;BME280;19112;51.076;3.706;2022-09-12T12:31:25;101133.84;;;25.38;46.11
32735;BME280;19112;51.076;3.706;2022-09-12T12:33:53;101011.41;;;24.86;45.60
32735;BME280;19112;51.076;3.706;2022-09-12T12:36:37;101239.34;;;26.25;46.42
32735;BME280;19112;51.076;3.706;2022-09-12T12:42:02;101198.06;;;26.24;46.12
32735;BME280;19112;51.076;3.706;2022-09-12T12:47:38;101247.53;;;26.90;45.79
32735;BME280;19112;51.076;3.706;2022-09-12T12:55:36;101178.28;;;26.61;44.33
32735;BME280;19112;51.076;3.706;2022-09-12T12:58:05;101156.91;;;26.55;44.61
32735;BME280;19112;51.076;3.706;2022-09-12T13:00:35;101188.75;;;26.72;44.54
32735;BME280;19112;51.076;3.706;2022-09-12T13:05:50;101233.53;;;27.08;45.20
32735;BME280;19112;51.076;3.706;2022-09-12T13:11:07;101220.25;;;27.01;45.40
32735;BME280;19112;51.076;3.706;2022-09-12T13:13:57;101149.56;;;26.60;44.09
32735;BME280;19112;51.076;3.706;2022-09-12T13:16:37;101131.66;;;26.59;43.62
32735;BME280;19112;51.076;3.706;2022-09-12T13:19:18;101185.25;;;26.68;44.26
32735;BME280;19112;51.076;3.706;2022-09-12T13:22:01;101219.00;;;26.81;44.89
32735;BME280;19112;51.076;3.706;2022-09-12T13:24:28;101152.63;;;26.46;44.36
32735;BME280;19112;51.076;3.706;2022-09-12T13:26:54;101136.78;;;26.34;44.37
32735;BME280;19112;51.076;3.706;2022-09-12T13:29:24;100988.03;;;25.62;44.75
32735;BME280;19112;51.076;3.706;2022-09-12T13:31:58;101202.91;;;26.78;44.63
32735;BME280;19112;51.076;3.706;2022-09-12T13:34:33;101189.00;;;26.62;45.38
32735;BME280;19112;51.076;3.706;2022-09-12T13:45:24;101035.81;;;25.86;45.36
32735;BME280;19112;51.076;3.706;2022-09-12T13:48:01;101048.81;;;26.03;45.55
32735;BME280;19112;51.076;3.706;2022-09-12T13:50:40;101163.34;;;26.80;45.77
32735;BME280;19112;51.076;3.706;2022-09-12T13:53:15;100998.97;;;25.90;45.02
32735;BME280;19112;51.076;3.706;2022-09-12T13:55:52;101046.69;;;26.15;44.95
32735;BME280;19112;51.076;3.706;2022-09-12T13:58:29;101184.59;;;26.91;45.13
32735;BME280;19112;51.076;3.706;2022-09-12T14:01:06;101179.28;;;26.88;45.10
32735;BME280;19112;51.076;3.706;2022-09-12T14:03:54;101180.41;;;26.81;45.41
32735;BME280;19112;51.076;3.706;2022-09-12T14:06:50;101073.41;;;26.22;45.52
32735;BME280;19112;51.076;3.706;2022-09-12T14:09:37;101177.34;;;26.93;45.07
32735;BME280;19112;51.076;3.706;2022-09-12T14:12:27;101074.81;;;26.35;44.59
32735;BME280;19112;51.076;3.706;2022-09-12T14:14:55;101174.47;;;26.99;44.53
32735;BME280;19112;51.076;3.706;2022-09-12T14:17:27;101185.94;;;27.06;44.33
32735;BME280;19112;51.076;3.706;2022-09-12T14:19:54;101169.81;;;27.04;43.88
32735;BME280;19112;51.076;3.706;2022-09-12T14:22:24;101067.50;;;26.42;43.53
32735;BME280;19112;51.076;3.706;2022-09-12T14:24:54;101099.66;;;26.78;45.35
32735;BME280;19112;51.076;3.706;2022-09-12T14:27:43;101101.88;;;26.93;44.06
32735;BME280;19112;51.076;3.706;2022-09-12T14:30:34;100994.63;;;26.47;44.00
32735;BME280;19112;51.076;3.706;2022-09-12T14:33:21;101162.44;;;27.40;44.00
32735;BME280;19112;51.076;3.706;2022-09-12T14:36:29;100950.47;;;26.23;42.87
32735;BME280;19112;51.076;3.706;2022-09-12T14:38:55;101125.50;;;27.14;43.08
32735;BME280;19112;51.076;3.706;2022-09-12T14:41:32;100951.84;;;26.06;43.19
32735;BME280;19112;51.076;3.706;2022-09-12T14:44:04;101063.47;;;26.86;43.91
32735;BME280;19112;51.076;3.706;2022-09-12T14:46:40;101155.56;;;27.30;43.09
32735;BME280;19112;51.076;3.706;2022-09-12T14:49:12;101134.19;;;27.24;43.21
32735;BME280;19112;51.076;3.706;2022-09-12T14:52:00;101134.94;;;27.29;43.14
32735;BME280;19112;51.076;3.706;2022-09-12T14:57:44;101117.94;;;27.27;43.36
32735;BME280;19112;51.076;3.706;2022-09-12T14:59:45;100901.81;;;25.99;43.47
32735;BME280;19112;51.076;3.706;2022-09-12T15:04:58;101128.06;;;27.47;43.20
32735;BME280;19112;51.076;3.706;2022-09-12T15:07:44;101128.91;;;27.49;43.13
32735;BME280;19112;51.076;3.706;2022-09-12T15:10:30;101014.44;;;26.74;43.10
32735;BME280;19112;51.076;3.706;2022-09-12T15:15:35;101076.84;;;27.19;44.01
32735;BME280;19112;51.076;3.706;2022-09-12T15:18:02;101085.66;;;27.24;43.14
32735;BME280;19112;51.076;3.706;2022-09-12T15:20:28;100873.81;;;26.06;43.41
32735;BME280;19112;51.076;3.706;2022-09-12T15:22:54;101082.91;;;27.26;43.01
32735;BME280;19112;51.076;3.706;2022-09-12T15:25:20;101060.06;;;27.09;42.59
32735;BME280;19112;51.076;3.706;2022-09-12T15:27:47;100920.66;;;26.29;42.80
32735;BME280;19112;51.076;3.706;2022-09-12T15:30:14;101097.94;;;27.61;43.07
32735;BME280;19112;51.076;3.706;2022-09-12T15:32:43;101093.31;;;27.64;42.02
32735;BME280;19112;51.076;3.706;2022-09-12T15:35:20;101043.22;;;27.57;42.34
32735;BME280;19112;51.076;3.706;2022-09-12T15:37:48;100889.09;;;26.90;42.29
32735;BME280;19112;51.076;3.706;2022-09-12T15:40:14;101024.69;;;27.73;41.88
32735;BME280;19112;51.076;3.706;2022-09-12T15:42:41;100986.47;;;27.60;41.18
32735;BME280;19112;51.076;3.706;2022-09-12T15:45:26;101076.91;;;28.24;40.99
32735;BME280;19112;51.076;3.706;2022-09-12T15:47:54;100874.69;;;27.18;40.52